Time;durP1;ratioP1;P1;durP2;ratioP2;P2;SDS_P1;SDS_P2;PMS_P1;PMS_P2;Temp;Humidity;BMP_temperature;BMP_pressure;BME280_temperature;BME280_humidity;BME280_pressure;Samples;Min_cycle;Max_cycle;Signal;HPM_P1;HPM_P2
2022/07/30 00:01:16;;;;;;;6.97;5.22;;;;;;;21.75;47.59;101643.78;5010419;28;20121;-72
2022/07/30 00:03:46;;;;;;;7.75;5.32;;;;;;;21.70;47.50;101651.63;5011462;28;20133;-72
2022/07/30 00:06:13;;;;;;;9.40;6.32;;;;;;;21.67;47.60;101651.94;5011375;28;20467;-74
2022/07/30 00:08:40;;;;;;;8.00;5.93;;;;;;;21.62;47.61;101648.84;5011639;28;20056;-73
2022/07/30 00:11:07;;;;;;;7.93;5.22;;;;;;;21.56;47.60;101650.34;5011610;28;20403;-74
2022/07/30 00:13:38;;;;;;;7.68;5.90;;;;;;;21.50;47.91;101647.38;5010783;28;20046;-73
2022/07/30 00:16:04;;;;;;;7.72;5.72;;;;;;;21.46;47.57;101635.91;5011345;28;20038;-73
2022/07/30 00:18:31;;;;;;;8.48;5.88;;;;;;;21.46;47.98;101643.25;5011354;28;20408;-72
2022/07/30 00:21:00;;;;;;;7.50;5.72;;;;;;;21.44;47.89;101643.41;5010033;28;20054;-72
2022/07/30 00:23:28;;;;;;;8.32;5.65;;;;;;;21.42;47.95;101641.84;5009323;28;20408;-72
2022/07/30 00:25:54;;;;;;;7.70;6.28;;;;;;;21.39;48.20;101644.91;5011077;28;20070;-73
2022/07/30 00:28:21;;;;;;;7.05;6.05;;;;;;;21.37;48.58;101638.72;5011233;28;20038;-72
2022/07/30 00:30:47;;;;;;;10.93;6.18;;;;;;;21.33;48.54;101635.47;5011203;28;20414;-73
2022/07/30 00:33:21;;;;;;;7.78;5.90;;;;;;;21.31;48.36;101637.50;5010759;28;20165;-73
2022/07/30 00:35:47;;;;;;;9.50;5.80;;;;;;;21.30;48.89;101630.31;5009862;28;20506;-73
2022/07/30 00:38:14;;;;;;;8.55;5.60;;;;;;;21.29;48.92;101638.69;5011419;28;20056;-72
2022/07/30 00:40:40;;;;;;;8.38;6.03;;;;;;;21.25;49.15;101644.47;5011246;28;20042;-73
2022/07/30 00:43:14;;;;;;;8.27;6.53;;;;;;;21.24;49.08;101637.28;5011128;28;20048;-73
2022/07/30 00:45:42;;;;;;;10.40;6.38;;;;;;;21.23;49.34;101651.09;5010038;28;20077;-73
2022/07/30 00:48:10;;;;;;;10.60;6.75;;;;;;;21.22;49.17;101636.59;5011066;28;20496;-73
2022/07/30 00:50:37;;;;;;;9.85;7.10;;;;;;;21.18;49.39;101651.53;5009750;28;20081;-73
2022/07/30 00:53:08;;;;;;;8.88;6.25;;;;;;;21.16;49.58;101647.25;5011034;28;20129;-73
2022/07/30 00:55:35;;;;;;;8.45;6.70;;;;;;;21.14;49.80;101641.94;5009526;28;20492;-73
2022/07/30 00:58:03;;;;;;;9.70;6.55;;;;;;;21.11;49.75;101647.72;5013657;28;20034;-73
2022/07/30 01:00:29;;;;;;;9.20;6.90;;;;;;;21.10;50.12;101642.44;5013425;28;20038;-73
2022/07/30 01:02:59;;;;;;;13.35;7.25;;;;;;;21.08;50.22;101636.25;5013674;28;20053;-74
2022/07/30 01:05:25;;;;;;;9.20;6.70;;;;;;;21.09;50.01;101637.97;5012860;28;20041;-73
2022/07/30 01:07:52;;;;;;;11.27;6.45;;;;;;;21.09;50.44;101638.84;5013279;28;20461;-74
2022/07/30 01:10:19;;;;;;;10.63;7.38;;;;;;;21.09;50.13;101637.97;5012388;28;20060;-74
2022/07/30 01:12:47;;;;;;;11.27;7.15;;;;;;;21.06;50.33;101632.84;5013427;28;20045;-74
2022/07/30 01:15:15;;;;;;;10.85;7.13;;;;;;;21.06;50.85;101627.38;5012809;28;20088;-74
2022/07/30 01:17:41;;;;;;;9.93;6.68;;;;;;;21.05;50.49;101625.66;5014422;28;20038;-74
2022/07/30 01:20:17;;;;;;;10.45;6.97;;;;;;;21.07;50.99;101623.63;5014385;28;20042;-73
2022/07/30 01:22:58;;;;;;;11.05;6.72;;;;;;;21.07;51.09;101629.94;5014007;28;20061;-75
2022/07/30 01:25:30;;;;;;;8.75;6.53;;;;;;;21.05;51.00;101628.38;5012921;28;20138;-74
2022/07/30 01:28:02;;;;;;;9.50;7.22;;;;;;;21.00;51.02;101622.53;5014272;28;20534;-74
2022/07/30 01:30:32;;;;;;;10.82;6.60;;;;;;;20.97;51.00;101628.31;5014127;28;20468;-74
2022/07/30 01:33:05;;;;;;;9.27;7.13;;;;;;;20.93;51.08;101634.09;5012490;28;20393;-75
2022/07/30 01:35:33;;;;;;;13.57;6.70;;;;;;;20.91;51.07;101636.13;5012788;28;20187;-74
2022/07/30 01:38:02;;;;;;;9.73;7.32;;;;;;;20.87;50.75;101629.25;5012567;28;20054;-74
2022/07/30 01:40:30;;;;;;;11.90;7.78;;;;;;;20.79;50.78;101636.50;5012656;28;20057;-75
2022/07/30 01:43:01;;;;;;;14.45;8.02;;;;;;;20.74;51.12;101627.91;5012641;28;20073;-75
2022/07/30 01:45:31;;;;;;;10.70;7.90;;;;;;;20.71;51.40;101628.22;4995568;28;20093;-74
2022/07/30 01:48:10;;;;;;;12.73;8.20;;;;;;;20.70;51.19;101626.50;5012350;28;20042;-74
2022/07/30 01:50:41;;;;;;;10.27;8.00;;;;;;;20.69;51.69;101630.25;5012374;28;20459;-73
2022/07/30 01:53:21;;;;;;;13.85;8.18;;;;;;;20.66;51.66;101631.41;5013884;28;20041;-73
2022/07/30 01:55:50;;;;;;;11.25;8.70;;;;;;;20.68;51.45;101634.00;5008264;28;20042;-73
2022/07/30 01:58:19;;;;;;;11.75;8.20;;;;;;;20.68;51.43;101634.84;4992821;28;20057;-73
2022/07/30 02:00:53;;;;;;;11.13;8.10;;;;;;;20.69;51.92;101641.16;4992711;28;20054;-73
2022/07/30 02:03:26;;;;;;;11.57;8.30;;;;;;;20.68;51.74;101645.78;4994124;28;20113;-73
2022/07/30 02:05:57;;;;;;;10.98;9.02;;;;;;;20.68;52.08;101640.31;5004061;28;20112;-73
2022/07/30 02:08:43;;;;;;;11.43;8.02;;;;;;;20.67;52.17;101649.50;5011981;28;20495;-73
2022/07/30 02:11:13;;;;;;;13.48;8.73;;;;;;;20.67;52.10;101646.78;5012117;28;20404;-74
2022/07/30 02:13:51;;;;;;;12.05;9.05;;;;;;;20.64;52.26;101641.63;5013193;28;20042;-73
2022/07/30 02:16:25;;;;;;;10.15;7.85;;;;;;;20.61;52.22;101645.53;5011968;28;20037;-73
2022/07/30 02:19:07;;;;;;;12.32;8.48;;;;;;;20.59;51.81;101642.09;5011977;28;20046;-73
2022/07/30 02:21:44;;;;;;;11.52;8.20;;;;;;;20.59;52.12;101647.56;5011727;28;20046;-73
2022/07/30 02:24:22;;;;;;;13.15;8.75;;;;;;;20.58;52.25;101645.84;5012542;28;20034;-73
2022/07/30 02:26:55;;;;;;;10.48;8.48;;;;;;;20.56;52.01;101644.28;4995650;28;20484;-73
2022/07/30 02:29:24;;;;;;;12.73;8.85;;;;;;;20.53;52.28;101642.72;5012913;28;20046;-73
2022/07/30 02:31:53;;;;;;;12.15;8.68;;;;;;;20.52;52.09;101640.16;5013011;28;20121;-73
2022/07/30 02:34:23;;;;;;;13.02;9.02;;;;;;;20.50;52.17;101639.44;5013107;28;20052;-73
2022/07/30 02:36:52;;;;;;;12.60;9.00;;;;;;;20.49;52.61;101645.91;5010957;28;20092;-73
2022/07/30 02:39:20;;;;;;;10.48;8.13;;;;;;;20.46;52.39;101640.75;5011561;28;20056;-73
2022/07/30 02:41:49;;;;;;;11.65;8.88;;;;;;;20.46;52.44;101644.34;5011314;28;20156;-73
2022/07/30 02:44:19;;;;;;;12.63;9.77;;;;;;;20.45;52.77;101639.03;5012897;28;20049;-73
2022/07/30 02:46:48;;;;;;;12.23;9.15;;;;;;;20.45;52.54;101639.03;5011192;28;20137;-73
2022/07/30 02:49:40;;;;;;;10.80;8.23;;;;;;;20.45;52.60;101649.97;4993014;28;20500;-75
2022/07/30 02:52:12;;;;;;;10.38;8.73;;;;;;;20.40;52.49;101650.41;4991589;28;20046;-75
2022/07/30 02:54:42;;;;;;;11.68;8.05;;;;;;;20.36;52.53;101650.84;5008110;28;20077;-74
2022/07/30 02:57:09;;;;;;;10.02;8.75;;;;;;;20.33;52.50;101645.69;5007873;28;20093;-74
2022/07/30 02:59:38;;;;;;;11.98;8.68;;;;;;;20.29;52.47;101648.72;4997818;28;20113;-75
2022/07/30 03:02:08;;;;;;;11.35;8.80;;;;;;;20.28;53.10;101649.75;5011249;28;20499;-75
2022/07/30 03:04:37;;;;;;;13.30;8.15;;;;;;;20.28;52.75;101640.69;5011159;28;20042;-74
2022/07/30 03:07:05;;;;;;;14.95;8.85;;;;;;;20.28;52.72;101646.16;5011110;28;20088;-74
2022/07/30 03:09:37;;;;;;;12.35;8.88;;;;;;;20.27;52.95;101653.47;5010940;28;20053;-74
2022/07/30 03:12:18;;;;;;;12.20;9.05;;;;;;;20.27;52.98;101652.63;5011422;28;20400;-74
2022/07/30 03:14:45;;;;;;;12.10;9.00;;;;;;;20.22;53.39;101658.53;5010929;28;20045;-74
2022/07/30 03:17:14;;;;;;;14.32;9.15;;;;;;;20.21;53.64;101664.13;5010833;28;20468;-74
2022/07/30 03:19:44;;;;;;;10.18;8.50;;;;;;;20.19;53.39;101663.44;5009470;28;20050;-74
2022/07/30 03:22:13;;;;;;;11.65;8.50;;;;;;;20.18;53.62;101659.84;5011895;28;20041;-74
2022/07/30 03:24:43;;;;;;;12.23;8.05;;;;;;;20.18;53.26;101659.84;5012111;28;20038;-74
2022/07/30 03:27:12;;;;;;;10.40;8.40;;;;;;;20.16;53.31;101663.75;5010847;28;20133;-74
2022/07/30 03:29:40;;;;;;;11.95;8.70;;;;;;;20.14;53.61;101657.56;5011339;28;20065;-74
2022/07/30 03:32:08;;;;;;;13.93;8.40;;;;;;;20.12;53.70;101659.59;5010473;28;20144;-74
2022/07/30 03:34:41;;;;;;;10.98;8.57;;;;;;;20.13;54.07;101653.13;5011996;28;20034;-74
2022/07/30 03:37:10;;;;;;;12.88;8.80;;;;;;;20.12;53.98;101654.16;4990793;28;20073;-74
2022/07/30 03:39:38;;;;;;;11.50;8.13;;;;;;;20.13;53.71;101658.59;4991104;28;20046;-74
2022/07/30 03:42:06;;;;;;;13.80;7.40;;;;;;;20.13;53.57;101659.44;4996076;28;20045;-74
2022/07/30 03:44:36;;;;;;;12.48;8.10;;;;;;;20.14;53.89;101660.31;5010022;28;20088;-75
2022/07/30 03:47:05;;;;;;;10.68;7.50;;;;;;;20.12;53.39;101660.44;5009739;28;20048;-75
2022/07/30 03:49:39;;;;;;;9.27;7.43;;;;;;;20.10;53.42;101653.44;5007536;28;20045;-74
2022/07/30 03:52:07;;;;;;;10.90;8.10;;;;;;;20.04;53.43;101649.41;5006775;28;20046;-74
2022/07/30 03:54:35;;;;;;;8.48;6.85;;;;;;;19.99;53.38;101658.03;4998548;28;20042;-75
2022/07/30 03:57:21;;;;;;;9.82;6.95;;;;;;;19.93;53.37;101661.38;5011901;28;20057;-74
2022/07/30 03:59:50;;;;;;;9.50;7.13;;;;;;;19.88;53.18;101662.84;5010313;28;20400;-74
2022/07/30 04:02:19;;;;;;;8.38;6.90;;;;;;;19.83;53.50;101660.56;5006570;28;20062;-75
2022/07/30 04:05:17;;;;;;;11.48;7.78;;;;;;;19.76;53.29;101662.16;4991461;28;20394;-72
2022/07/30 04:07:49;;;;;;;8.32;7.38;;;;;;;19.69;53.66;101666.47;4990790;28;20042;-76
2022/07/30 04:10:19;;;;;;;8.98;7.35;;;;;;;19.62;53.53;101668.94;4990498;28;20073;-76
2022/07/30 04:13:02;;;;;;;10.57;7.53;;;;;;;19.61;53.18;101671.81;5004891;28;20058;-75
2022/07/30 04:15:44;;;;;;;9.07;8.15;;;;;;;19.57;53.69;101679.44;5009963;28;20053;-74
2022/07/30 04:18:41;;;;;;;9.75;8.48;;;;;;;19.55;53.44;101675.13;5010381;28;20050;-74
2022/07/30 04:21:10;;;;;;;10.00;9.00;;;;;;;19.55;53.77;101678.72;5009737;28;20042;-74
2022/07/30 04:23:50;;;;;;;10.25;9.20;;;;;;;19.50;53.77;101680.13;5010005;28;20042;-73
2022/07/30 04:26:34;;;;;;;12.43;9.35;;;;;;;19.46;53.93;101682.28;5009633;28;20092;-74
2022/07/30 04:29:06;;;;;;;11.10;8.70;;;;;;;19.44;54.01;101688.88;5010277;28;20345;-73
2022/07/30 04:31:34;;;;;;;11.38;9.13;;;;;;;19.42;53.51;101685.44;5010836;28;20049;-74
2022/07/30 04:34:26;;;;;;;16.52;10.05;;;;;;;19.36;53.88;101693.19;5014218;28;20147;-73
2022/07/30 04:36:53;;;;;;;13.48;10.40;;;;;;;19.34;54.09;101697.94;4997575;28;20122;-73
2022/07/30 04:39:19;;;;;;;13.18;10.52;;;;;;;19.28;53.78;101695.75;5015156;28;20040;-74
2022/07/30 04:41:46;;;;;;;14.93;10.85;;;;;;;19.24;54.35;101698.91;5015109;28;20314;-73
2022/07/30 04:44:35;;;;;;;12.70;10.75;;;;;;;19.20;53.98;101706.50;5009937;28;20039;-73
2022/07/30 04:47:25;;;;;;;14.05;10.82;;;;;;;19.17;54.42;101706.81;5004263;28;20045;-73
2022/07/30 04:50:21;;;;;;;13.40;11.10;;;;;;;19.17;54.67;101709.53;5005290;28;20520;-73
2022/07/30 04:52:54;;;;;;;15.43;11.57;;;;;;;19.17;54.82;101711.38;5013686;28;20415;-75
2022/07/30 04:55:27;;;;;;;12.60;10.73;;;;;;;19.17;54.65;101716.84;4998007;28;20042;-75
2022/07/30 04:57:56;;;;;;;13.68;12.15;;;;;;;19.15;55.00;101713.41;5013601;28;20088;-74
2022/07/30 05:00:23;;;;;;;14.73;11.93;;;;;;;19.14;55.15;101722.56;5014881;28;20064;-74
2022/07/30 05:02:56;;;;;;;17.90;12.32;;;;;;;19.16;55.29;101720.56;5014820;28;20045;-75
2022/07/30 05:05:24;;;;;;;19.10;12.38;;;;;;;19.22;55.27;101726.28;5013314;28;20052;-74
2022/07/30 05:07:53;;;;;;;21.45;12.20;;;;;;;19.26;55.60;101724.13;5013545;28;20117;-74
2022/07/30 05:10:20;;;;;;;16.40;12.57;;;;;;;19.32;55.71;101731.72;5013356;28;20076;-75
2022/07/30 05:12:51;;;;;;;21.50;14.23;;;;;;;19.39;55.37;101729.31;5013287;28;20042;-75
2022/07/30 05:15:20;;;;;;;18.95;14.85;;;;;;;19.43;55.61;101726.16;5013143;28;20053;-75
2022/07/30 05:17:47;;;;;;;20.58;15.68;;;;;;;19.46;55.71;101723.16;5013248;28;20049;-74
2022/07/30 05:20:14;;;;;;;19.13;14.57;;;;;;;19.50;56.01;101729.16;5009626;28;20527;-75
2022/07/30 05:23:05;;;;;;;20.33;16.08;;;;;;;19.56;56.08;101734.06;4989840;28;20042;-74
2022/07/30 05:25:33;;;;;;;20.42;16.48;;;;;;;19.61;56.18;101738.06;4992753;28;20530;-75
2022/07/30 05:28:13;;;;;;;21.27;15.15;;;;;;;19.67;56.61;101737.50;5003639;28;20053;-74
2022/07/30 05:30:40;;;;;;;21.30;16.88;;;;;;;19.73;56.26;101740.63;4976877;28;20496;-75
2022/07/30 05:33:13;;;;;;;26.00;16.40;;;;;;;19.76;56.55;101741.19;4994467;28;20045;-75
2022/07/30 05:35:42;;;;;;;21.60;18.30;;;;;;;19.80;56.84;101739.91;4992937;28;20093;-73
2022/07/30 05:38:08;;;;;;;21.60;17.08;;;;;;;19.84;57.21;101748.63;5005803;28;20120;-73
2022/07/30 05:40:49;;;;;;;26.33;18.42;;;;;;;19.90;56.84;101739.88;5012390;28;20408;-72
2022/07/30 05:43:34;;;;;;;21.85;17.17;;;;;;;19.93;57.24;101743.16;5012940;28;20053;-73
2022/07/30 05:46:01;;;;;;;22.65;17.27;;;;;;;19.97;57.40;101744.59;5012242;28;20456;-73
2022/07/30 05:48:30;;;;;;;25.77;19.13;;;;;;;20.06;57.51;101750.16;5012219;28;20050;-73
2022/07/30 05:50:58;;;;;;;25.05;17.55;;;;;;;20.11;57.17;101747.88;5012375;28;20528;-73
2022/07/30 05:53:26;;;;;;;21.63;18.17;;;;;;;20.19;57.36;101747.97;4996329;28;20091;-73
2022/07/30 05:56:02;;;;;;;23.40;17.58;;;;;;;20.25;57.51;101742.78;5013817;28;20471;-73
2022/07/30 05:59:04;;;;;;;23.58;17.85;;;;;;;20.30;57.69;101747.78;4990308;28;20137;-73
2022/07/30 06:01:50;;;;;;;26.10;18.02;;;;;;;20.37;57.51;101745.31;5011715;28;20042;-74
2022/07/30 06:04:28;;;;;;;20.25;15.25;;;;;;;20.43;57.99;101750.22;5011919;28;20042;-74
2022/07/30 06:07:01;;;;;;;22.52;16.40;;;;;;;20.48;57.91;101754.19;5011810;28;20038;-74
2022/07/30 06:09:30;;;;;;;20.88;15.23;;;;;;;20.53;57.63;101753.75;5011878;28;20050;-74
2022/07/30 06:12:04;;;;;;;17.75;14.20;;;;;;;20.61;57.73;101753.84;5013667;28;20078;-74
2022/07/30 06:14:32;;;;;;;19.40;13.32;;;;;;;20.69;57.92;101753.94;5012291;28;20119;-74
2022/07/30 06:16:59;;;;;;;15.27;12.15;;;;;;;20.78;57.95;101755.75;5011865;28;20068;-74
2022/07/30 06:19:35;;;;;;;16.25;12.77;;;;;;;20.90;57.97;101757.28;5011369;28;20038;-74
2022/07/30 06:22:03;;;;;;;19.65;13.02;;;;;;;21.02;57.78;101757.91;5011622;28;20074;-74
2022/07/30 06:24:37;;;;;;;15.35;12.55;;;;;;;21.18;57.95;101762.69;5011903;28;20247;-73
2022/07/30 06:27:14;;;;;;;19.08;13.32;;;;;;;21.35;57.77;101769.19;5011914;28;20044;-73
2022/07/30 06:29:41;;;;;;;16.17;12.32;;;;;;;21.43;57.48;101772.00;5011225;28;20046;-73
2022/07/30 06:32:08;;;;;;;18.58;13.73;;;;;;;21.50;57.27;101765.75;4995454;28;20042;-73
2022/07/30 06:34:35;;;;;;;19.63;13.38;;;;;;;21.56;57.61;101773.34;5009945;28;20046;-73
2022/07/30 06:37:01;;;;;;;16.00;11.27;;;;;;;21.64;57.27;101771.69;4995375;28;20500;-72
2022/07/30 06:39:29;;;;;;;16.67;11.48;;;;;;;21.73;57.16;101778.94;5010775;28;20041;-73
2022/07/30 06:42:19;;;;;;;15.57;10.77;;;;;;;21.77;57.08;101780.34;5012513;28;20064;-75
2022/07/30 06:45:21;;;;;;;15.65;10.13;;;;;;;21.86;56.85;101787.59;5010219;28;20041;-73
2022/07/30 06:48:16;;;;;;;15.02;10.32;;;;;;;21.91;56.89;101795.31;5004570;28;20056;-74
2022/07/30 06:50:43;;;;;;;12.77;9.85;;;;;;;22.01;56.60;101785.13;5007481;28;20042;-74
2022/07/30 06:53:10;;;;;;;15.25;10.25;;;;;;;22.14;56.73;101788.31;4991547;28;20042;-73
2022/07/30 06:55:57;;;;;;;12.65;9.88;;;;;;;22.26;56.37;101781.56;4992393;28;20505;-70
2022/07/30 06:58:32;;;;;;;15.80;10.75;;;;;;;22.35;56.37;101786.09;4976566;28;20074;-73
2022/07/30 07:01:17;;;;;;;14.50;10.70;;;;;;;22.47;56.39;101783.91;4993122;28;20056;-73
2022/07/30 07:03:45;;;;;;;13.82;9.65;;;;;;;22.57;56.10;101779.16;5009995;28;20100;-74
2022/07/30 07:06:12;;;;;;;17.77;9.55;;;;;;;22.63;55.57;101780.41;5012348;28;20436;-73
2022/07/30 07:08:40;;;;;;;13.65;9.10;;;;;;;22.66;55.61;101780.91;5010707;28;20064;-73
2022/07/30 07:11:09;;;;;;;12.85;9.63;;;;;;;22.71;55.25;101785.91;5010735;28;20476;-72
2022/07/30 07:13:46;;;;;;;15.07;10.75;;;;;;;22.76;55.05;101787.13;5011784;28;20084;-74
2022/07/30 07:16:34;;;;;;;14.38;10.55;;;;;;;22.80;55.08;101791.28;5109648;27;20419;-75
2022/07/30 07:19:20;;;;;;;15.07;11.38;;;;;;;22.86;55.09;101791.63;5109250;27;20497;-70
2022/07/30 07:22:07;;;;;;;14.20;10.32;;;;;;;22.89;54.56;101788.56;5109297;28;20039;-70
2022/07/30 07:24:33;;;;;;;14.68;10.57;;;;;;;22.92;54.24;101788.22;5108844;28;20048;-69
2022/07/30 07:27:06;;;;;;;15.50;11.35;;;;;;;22.98;54.48;101785.69;5107710;28;20040;-70
2022/07/30 07:29:43;;;;;;;15.68;10.43;;;;;;;23.06;54.41;101780.25;5108077;28;20097;-69
2022/07/30 07:32:29;;;;;;;11.95;9.95;;;;;;;23.21;54.12;101783.19;5107845;28;20044;-70
2022/07/30 07:34:56;;;;;;;12.95;9.15;;;;;;;23.29;53.95;101783.19;5107085;27;20044;-69
2022/07/30 07:37:23;;;;;;;9.85;8.27;;;;;;;23.32;53.73;101780.13;5107283;28;20077;-70
2022/07/30 07:39:49;;;;;;;12.13;8.65;;;;;;;23.37;53.67;101788.69;5108573;28;20114;-70
2022/07/30 07:42:16;;;;;;;10.00;7.97;;;;;;;23.44;53.22;101786.13;5107199;28;20055;-70
2022/07/30 07:44:43;;;;;;;9.38;7.55;;;;;;;23.52;53.16;101790.75;5090448;27;20097;-69
2022/07/30 07:47:10;;;;;;;9.30;7.68;;;;;;;23.60;53.08;101793.53;5107107;28;20044;-69
2022/07/30 07:49:43;;;;;;;11.25;7.00;;;;;;;23.67;52.71;101792.69;5091288;28;20471;-72
2022/07/30 07:52:10;;;;;;;9.15;7.65;;;;;;;23.78;51.89;101788.72;5108010;28;20032;-75
2022/07/30 07:54:37;;;;;;;10.13;7.32;;;;;;;23.88;52.36;101786.69;5106815;28;20067;-74
2022/07/30 07:57:06;;;;;;;11.65;8.43;;;;;;;24.03;51.58;101790.44;5107258;28;20040;-75
2022/07/30 07:59:39;;;;;;;16.73;8.67;;;;;;;24.14;51.47;101791.09;5107327;28;20043;-73
2022/07/30 08:02:23;;;;;;;11.60;8.82;;;;;;;24.26;51.13;101787.81;5107347;28;20289;-74
2022/07/30 08:05:05;;;;;;;12.88;8.85;;;;;;;24.31;50.57;101782.69;5106986;27;20052;-73
2022/07/30 08:07:47;;;;;;;8.75;6.35;;;;;;;24.39;50.25;101790.03;5108855;28;20044;-74
2022/07/30 08:10:42;;;;;;;8.18;7.15;;;;;;;24.44;50.29;101795.00;5108352;28;20062;-73
2022/07/30 08:13:29;;;;;;;10.82;7.25;;;;;;;24.49;49.98;101790.69;5108079;28;20181;-73
2022/07/30 08:16:41;;;;;;;10.13;6.70;;;;;;;24.58;49.56;101789.66;5108071;28;20591;-76
2022/07/30 08:19:43;;;;;;;8.77;5.10;;;;;;;24.67;49.06;101788.59;5108101;28;20105;-73
2022/07/30 08:22:16;;;;;;;10.77;5.40;;;;;;;24.80;49.07;101788.00;5106679;28;20036;-74
2022/07/30 08:24:42;;;;;;;7.55;6.25;;;;;;;24.95;48.84;101780.72;5106195;27;20039;-74
2022/07/30 08:27:09;;;;;;;8.88;6.65;;;;;;;25.00;48.44;101777.47;5097944;28;20118;-73
2022/07/30 08:29:36;;;;;;;9.75;7.03;;;;;;;25.10;48.06;101782.72;5092856;28;20093;-72
2022/07/30 08:32:04;;;;;;;7.85;5.60;;;;;;;25.19;47.68;101777.00;5092583;28;20097;-75
2022/07/30 08:34:34;;;;;;;7.43;5.13;;;;;;;25.31;47.44;101777.47;5092868;28;20636;-74
2022/07/30 08:37:02;;;;;;;7.38;2.92;;;;;;;25.40;46.87;101787.34;5093491;28;20046;-74
2022/07/30 08:39:28;;;;;;;4.38;2.60;;;;;;;25.45;46.65;101781.31;5093292;28;20113;-74
2022/07/30 08:41:56;;;;;;;5.20;2.75;;;;;;;25.50;46.19;101785.22;5093529;28;20044;-74
2022/07/30 08:44:25;;;;;;;11.55;3.60;;;;;;;25.59;46.00;101781.34;5094644;28;20401;-74
2022/07/30 08:46:55;;;;;;;6.43;3.30;;;;;;;25.72;45.90;101785.41;5093183;28;20105;-76
2022/07/30 08:49:43;;;;;;;5.47;2.90;;;;;;;25.85;46.26;101789.25;5065509;28;20053;-74
2022/07/30 08:52:10;;;;;;;4.78;3.10;;;;;;;25.93;45.42;101783.66;5055979;28;20044;-76
2022/07/30 08:54:47;;;;;;;5.23;2.40;;;;;;;26.00;44.89;101788.41;5072668;28;20052;-76
2022/07/30 08:57:14;;;;;;;5.22;2.47;;;;;;;26.09;44.65;101793.69;5072427;28;20052;-77
2022/07/30 08:59:42;;;;;;;5.47;2.75;;;;;;;26.13;44.39;101785.91;5092154;28;20056;-74
2022/07/30 09:02:30;;;;;;;5.82;3.28;;;;;;;26.20;44.10;101795.13;5094920;28;20043;-75
2022/07/30 09:05:01;;;;;;;4.93;2.75;;;;;;;26.29;44.21;101785.72;5093716;28;20114;-75
2022/07/30 09:07:27;;;;;;;6.45;2.83;;;;;;;26.39;44.02;101791.84;5094656;28;20570;-74
2022/07/30 09:09:55;;;;;;;5.65;2.80;;;;;;;26.53;43.91;101793.72;5093704;28;20047;-74
2022/07/30 09:12:31;;;;;;;3.75;2.50;;;;;;;26.63;43.42;101798.09;5093479;28;20040;-74
2022/07/30 09:15:06;;;;;;;4.65;2.65;;;;;;;26.67;43.22;101797.53;5093073;28;20040;-74
2022/07/30 09:17:55;;;;;;;12.73;3.85;;;;;;;26.74;42.93;101792.09;5093403;28;20452;-73
2022/07/30 09:20:27;;;;;;;6.05;2.55;;;;;;;26.78;42.84;101790.69;5093460;28;20043;-73
2022/07/30 09:22:58;;;;;;;3.33;2.42;;;;;;;26.90;42.83;101792.75;5093486;28;20044;-73
2022/07/30 09:26:03;;;;;;;4.90;2.50;;;;;;;27.10;42.67;101783.91;5094867;28;20048;-71
2022/07/30 09:28:48;;;;;;;;;;;;;;;27.26;43.02;101789.16;5094227;28;20055;-70
2022/07/30 09:32:01;;;;;;;6.97;3.30;;;;;;;27.45;42.01;101784.91;5094347;28;19943;-70
2022/07/30 09:34:49;;;;;;;3.33;2.25;;;;;;;27.39;41.49;101792.06;5094934;28;20051;-71
2022/07/30 09:37:38;;;;;;;6.57;2.50;;;;;;;27.40;41.61;101790.16;5093520;28;20055;-72
2022/07/30 09:40:24;;;;;;;4.40;2.35;;;;;;;27.43;41.28;101800.81;5082002;28;20046;-71
2022/07/30 09:43:51;;;;;;;5.07;2.70;;;;;;;27.47;41.12;101791.06;5067090;28;20406;-72
2022/07/30 09:46:22;;;;;;;4.30;2.30;;;;;;;27.51;40.98;101786.91;5072825;28;20038;-72
2022/07/30 09:48:49;;;;;;;4.07;2.05;;;;;;;27.60;40.91;101788.47;5084528;28;20040;-71
2022/07/30 09:51:16;;;;;;;5.28;2.00;;;;;;;27.71;40.63;101787.97;5094290;28;20036;-73
2022/07/30 09:53:58;;;;;;;7.60;2.42;;;;;;;27.85;40.47;101789.78;5094252;28;20394;-71
2022/07/30 09:56:28;;;;;;;4.35;2.70;;;;;;;27.96;40.25;101793.06;5092586;28;20051;-70
2022/07/30 09:59:28;;;;;;;6.50;2.95;;;;;;;28.04;40.03;101799.28;5092452;28;20440;-71
2022/07/30 10:02:02;;;;;;;8.35;2.20;;;;;;;28.10;39.56;101800.38;5092733;28;20127;-69
2022/07/30 10:05:09;;;;;;;7.07;2.30;;;;;;;28.11;39.04;101788.28;5093379;28;20047;-69
2022/07/30 10:07:54;;;;;;;6.70;2.45;;;;;;;28.11;39.04;101794.66;5092078;28;20048;-69
2022/07/30 10:10:23;;;;;;;2.95;1.88;;;;;;;28.14;38.83;101788.72;5076013;28;20137;-70
2022/07/30 10:13:00;;;;;;;3.65;1.83;;;;;;;28.19;38.11;101788.13;5075863;28;20044;-70
2022/07/30 10:15:33;;;;;;;8.98;2.67;;;;;;;28.27;38.12;101777.00;5075374;28;20135;-70
2022/07/30 10:18:03;;;;;;;6.22;2.10;;;;;;;28.36;37.82;101780.44;5092000;28;20063;-70
2022/07/30 10:20:50;;;;;;;4.78;2.45;;;;;;;28.44;38.14;101774.75;5093361;27;20059;-69
2022/07/30 10:23:51;;;;;;;;;;;;;;;28.54;38.09;101771.59;5093632;28;20134;-69
2022/07/30 10:26:48;;;;;;;6.05;2.55;;;;;;;28.65;37.79;101777.41;5078397;28;19923;-68
2022/07/30 10:29:48;;;;;;;3.40;2.28;;;;;;;28.73;37.38;101770.84;5092965;28;20048;-68
2022/07/30 10:32:14;;;;;;;3.58;2.10;;;;;;;28.75;37.22;101772.34;5093258;28;20055;-70
2022/07/30 10:34:42;;;;;;;6.57;2.47;;;;;;;28.82;36.59;101760.47;5093046;27;20070;-70
2022/07/30 10:37:11;;;;;;;2.90;2.25;;;;;;;28.82;36.68;101766.84;5093003;28;20036;-69
2022/07/30 10:39:51;;;;;;;4.40;2.33;;;;;;;28.89;36.61;101764.13;5092871;28;20528;-69
2022/07/30 10:42:31;;;;;;;5.72;2.40;;;;;;;29.01;36.46;101768.03;5091783;28;20137;-69
2022/07/30 10:45:36;;;;;;;3.33;2.30;;;;;;;29.10;36.22;101773.16;5092954;28;20050;-70
2022/07/30 10:48:10;;;;;;;3.78;2.28;;;;;;;29.27;36.39;101770.88;5092947;28;20036;-70
2022/07/30 10:50:50;;;;;;;3.95;2.38;;;;;;;29.34;35.80;101774.50;5092756;28;20044;-70
2022/07/30 10:53:38;;;;;;;4.00;2.17;;;;;;;29.41;35.85;101777.28;5092832;28;20044;-69
2022/07/30 10:56:22;;;;;;;4.88;2.20;;;;;;;29.46;35.25;101771.13;5092460;28;20070;-69
2022/07/30 10:59:00;;;;;;;3.92;2.30;;;;;;;29.51;35.30;101769.44;5091471;28;20047;-70
2022/07/30 11:01:47;;;;;;;5.25;1.90;;;;;;;29.59;35.33;101768.38;5092756;28;20122;-68
2022/07/30 11:04:25;;;;;;;2.80;1.90;;;;;;;29.76;35.18;101771.59;5092681;28;20379;-69
2022/07/30 11:07:22;;;;;;;2.78;1.88;;;;;;;29.87;35.05;101768.19;5088158;28;20059;-69
2022/07/30 11:09:53;;;;;;;6.25;1.67;;;;;;;29.96;34.89;101769.69;5091174;28;20121;-69
2022/07/30 11:12:41;;;;;;;3.10;1.88;;;;;;;30.00;34.83;101763.50;5093125;28;20070;-70
2022/07/30 11:15:55;;;;;;;4.43;2.00;;;;;;;30.15;34.70;101760.50;5091435;28;20148;-70
2022/07/30 11:18:25;;;;;;;4.20;1.95;;;;;;;30.30;34.81;101768.59;5091109;28;20071;-69
2022/07/30 11:21:19;;;;;;;2.13;1.38;;;;;;;30.38;34.36;101762.81;5092004;28;20362;-70
2022/07/30 11:23:47;;;;;;;5.35;2.00;;;;;;;30.41;34.67;101769.84;5090918;28;20139;-70
2022/07/30 11:26:37;;;;;;;6.68;1.63;;;;;;;30.45;33.98;101766.41;5091994;28;20044;-70
2022/07/30 11:29:27;;;;;;;5.18;1.80;;;;;;;30.55;33.97;101758.50;5090920;28;20056;-69
2022/07/30 11:32:49;;;;;;;3.08;1.50;;;;;;;30.59;33.54;101770.03;5090681;28;20513;-70
2022/07/30 11:35:18;;;;;;;2.75;1.70;;;;;;;30.63;33.27;101761.06;5086413;28;20130;-70
2022/07/30 11:38:14;;;;;;;1.90;1.20;;;;;;;30.67;33.38;101764.25;5091630;28;20067;-72
2022/07/30 11:40:44;;;;;;;3.47;1.48;;;;;;;30.83;33.35;101755.44;5092080;28;20050;-70
2022/07/30 11:43:24;;;;;;;4.10;1.40;;;;;;;30.92;33.23;101762.44;5087560;28;20036;-69
2022/07/30 11:46:21;;;;;;;4.50;1.15;;;;;;;31.05;32.99;101755.09;5087827;28;20123;-70
2022/07/30 11:49:03;;;;;;;4.03;1.83;;;;;;;31.09;32.34;101748.03;5088445;28;20247;-69
2022/07/30 11:51:40;;;;;;;;;;;;;;;31.08;32.79;101744.41;5085996;28;20428;-70
2022/07/30 11:54:09;;;;;;;3.08;1.52;;;;;;;31.19;32.64;101746.50;5090891;28;19920;-70
2022/07/30 11:56:36;;;;;;;4.63;1.58;;;;;;;31.21;32.45;101737.97;5090554;28;20541;-69